Gandhi — A8OK8 — position and weather

sailwx.info

Track history (hours):
 
Tides and Currents Weather Stations Pressure Air Temp Water Temp Dewpoint Dewpoint Depression Visibility Wind Speed Wind Dir Waves Ship Positions

Gandhi

Last reported at 2015-Jul-04 05:32 UTC. Time now 2015-Jul-05 13:18 UTC.
Position N 37°32' W 001°00'.

Length 180 m; draft 7.2 m.

Type: Ship. MMSI: 636013645.

Date/timePositionNaut miles runAvg speedWind from/ knotsBaromVisibWave heightAir tempDewpointWater temp
2015-Jul-04 05:32N 37°32' W 001°00'1312.9
2015-Jul-04 04:33N 37°26' W 000°46'1414.1
2015-Jul-04 03:33N 37°24' W 000°29'1413.5
2015-Jul-04 02:33N 37°21' W 000°12'1414.0
2015-Jul-04 01:33N 37°19' E 000°06'1413.6
2015-Jul-04 00:33N 37°16' E 000°22'1414.0
2015-Jul-03 23:33N 37°14' E 000°40'1414.1
2015-Jul-03 22:33N 37°11' E 000°57'1514.2
2015-Jul-03 21:30N 37°08' E 001°15'1414.4
2015-Jul-03 20:33N 37°06' E 001°32'1414.0
2015-Jul-03 19:33N 37°04' E 001°50'1913.5
2015-Jul-03 18:10N 37°02' E 002°13'710.8
2015-Jul-03 17:29N 36°58' E 002°21'1513.2
2015-Jul-03 16:23N 36°55' E 002°38'1313.4
2015-Jul-03 15:23N 36°53' E 002°55'1012.5
2015-Jul-03 14:33N 36°50' E 003°07'5 0.3
2015-Jul-02 20:30N 36°46' E 003°05'0 0.0
2015-Jul-02 14:29N 36°46' E 003°05'1 1.2
2015-Jul-02 13:25N 36°46' E 003°06'1 1.0
2015-Jul-02 12:31N 36°46' E 003°07'0 0.0
2015-Jul-02 07:32N 36°46' E 003°07'0 0.0
2015-Jul-01 19:32N 36°46' E 003°07'0 0.0
2015-Jul-01 18:29N 36°46' E 003°07'0 0.0
2015-Jul-01 17:32N 36°46' E 003°07'0 0.0
2015-Jul-01 16:23N 36°46' E 003°07'0 0.0
2015-Jul-01 15:29N 36°46' E 003°07'0 0.0
2015-Jul-01 14:32N 36°46' E 003°07'0 0.0
2015-Jul-01 13:32N 36°46' E 003°07'0 0.0
2015-Jul-01 12:32N 36°46' E 003°07'0 0.0
2015-Jul-01 11:29N 36°46' E 003°07'0 0.0
2015-Jul-01 10:32N 36°46' E 003°07'0 0.0
2015-Jul-01 06:11N 36°46' E 003°07'0 0.0
2015-Jul-01 02:32N 36°46' E 003°07'0 0.0
2015-Jul-01 01:32N 36°46' E 003°07'0 0.0
2015-Jun-30 23:20N 36°46' E 003°07'0 0.0
2015-Jun-30 22:17N 36°46' E 003°07'0 0.0
2015-Jun-30 21:29N 36°46' E 003°07'0 0.0
2015-Jun-30 20:32N 36°46' E 003°07'0 0.0
2015-Jun-30 19:32N 36°46' E 003°07'0 0.0
2015-Jun-30 18:32N 36°46' E 003°07'0 0.0
2015-Jun-30 17:32N 36°46' E 003°07'0 0.0
2015-Jun-30 16:26N 36°46' E 003°07'0 0.0
2015-Jun-30 15:32N 36°46' E 003°07'0 0.0
2015-Jun-30 14:32N 36°46' E 003°07'0 0.0
2015-Jun-30 13:32N 36°46' E 003°07'0 0.0
2015-Jun-30 12:32N 36°46' E 003°07'0 0.0
2015-Jun-30 11:29N 36°46' E 003°07'0 0.0
2015-Jun-30 10:32N 36°46' E 003°07'0 0.0
2015-Jun-30 09:32N 36°46' E 003°07'0 0.0
2015-Jun-30 08:29N 36°46' E 003°07'0 0.0
2015-Jun-30 07:32N 36°46' E 003°07'0 0.0
2015-Jun-30 06:32N 36°46' E 003°07'0 0.0
2015-Jun-30 05:20N 36°46' E 003°07'0 0.0
2015-Jun-30 04:32N 36°46' E 003°07'0 0.0
2015-Jun-30 01:32N 36°46' E 003°07'0 0.0
2015-Jun-30 00:32N 36°46' E 003°07'0 0.0
2015-Jun-29 23:29N 36°46' E 003°07'0 0.0
2015-Jun-29 22:32N 36°46' E 003°07'0 0.0
2015-Jun-29 21:32N 36°46' E 003°07'0 0.0
2015-Jun-29 20:32N 36°46' E 003°07'0 0.0
2015-Jun-29 19:32N 36°46' E 003°07'0 0.0
2015-Jun-29 18:32N 36°46' E 003°07'0 0.0
2015-Jun-29 17:20N 36°46' E 003°07'0 0.0
2015-Jun-28 16:08N 36°46' E 003°07'2 1.1
2015-Jun-28 14:31N 36°46' E 003°05'0 0.0
2015-Jun-27 07:08N 36°46' E 003°05'0 0.0
2015-Jun-27 02:32N 36°46' E 003°05'0 0.0
2015-Jun-27 00:14N 36°46' E 003°05'0 0.0
2015-Jun-26 15:32N 36°46' E 003°05'0 0.1
2015-Jun-26 13:33N 36°46' E 003°04'1 1.3
2015-Jun-26 12:33N 36°46' E 003°06'2 2.3
2015-Jun-26 11:33N 36°48' E 003°08'0 0.0
2015-Jun-26 02:23N 36°48' E 003°07'55 7.0
2015-Jun-25 18:28N 36°48' E 001°58'1314.8
2015-Jun-25 17:33N 36°45' E 001°42'3514.7
2015-Jun-25 15:10N 36°39' E 000°59'914.8
2015-Jun-25 14:32N 36°37' E 000°47'1614.5
2015-Jun-25 13:28N 36°34' E 000°28'1314.7
2015-Jun-25 12:33N 36°32' E 000°12'1914.6
2015-Jun-25 11:14N 36°28' W 000°12'24814.9
2015-Jun-24 18:33N 35°58' W 005°17'  
Track history (hours):
 
Tides and Currents Weather Stations Pressure Air Temp Water Temp Dewpoint Dewpoint Depression Visibility Wind Speed Wind Dir Waves Ship Positions

Gandhi

Last reported at 2015-Jul-04 05:32 UTC. Time now 2015-Jul-05 13:18 UTC.
Position N 37°32' W 001°00'.

Length 180 m; draft 7.2 m.

Type: Ship. MMSI: 636013645.

Date/timePositionNaut miles runAvg speedWind from/ knotsBaromVisibWave heightAir tempDewpointWater temp
2015-Jul-04 05:32N 37°32' W 001°00'1312.9
2015-Jul-04 04:33N 37°26' W 000°46'1414.1
2015-Jul-04 03:33N 37°24' W 000°29'1413.5
2015-Jul-04 02:33N 37°21' W 000°12'1414.0
2015-Jul-04 01:33N 37°19' E 000°06'1413.6
2015-Jul-04 00:33N 37°16' E 000°22'1414.0
2015-Jul-03 23:33N 37°14' E 000°40'1414.1
2015-Jul-03 22:33N 37°11' E 000°57'1514.2
2015-Jul-03 21:30N 37°08' E 001°15'1414.4
2015-Jul-03 20:33N 37°06' E 001°32'1414.0
2015-Jul-03 19:33N 37°04' E 001°50'1913.5
2015-Jul-03 18:10N 37°02' E 002°13'710.8
2015-Jul-03 17:29N 36°58' E 002°21'1513.2
2015-Jul-03 16:23N 36°55' E 002°38'1313.4
2015-Jul-03 15:23N 36°53' E 002°55'1012.5
2015-Jul-03 14:33N 36°50' E 003°07'5 0.3
2015-Jul-02 20:30N 36°46' E 003°05'0 0.0
2015-Jul-02 14:29N 36°46' E 003°05'1 1.2
2015-Jul-02 13:25N 36°46' E 003°06'1 1.0
2015-Jul-02 12:31N 36°46' E 003°07'0 0.0
2015-Jul-02 07:32N 36°46' E 003°07'0 0.0
2015-Jul-01 19:32N 36°46' E 003°07'0 0.0
2015-Jul-01 18:29N 36°46' E 003°07'0 0.0
2015-Jul-01 17:32N 36°46' E 003°07'0 0.0
2015-Jul-01 16:23N 36°46' E 003°07'0 0.0
2015-Jul-01 15:29N 36°46' E 003°07'0 0.0
2015-Jul-01 14:32N 36°46' E 003°07'0 0.0
2015-Jul-01 13:32N 36°46' E 003°07'0 0.0
2015-Jul-01 12:32N 36°46' E 003°07'0 0.0
2015-Jul-01 11:29N 36°46' E 003°07'0 0.0
2015-Jul-01 10:32N 36°46' E 003°07'0 0.0
2015-Jul-01 06:11N 36°46' E 003°07'0 0.0
2015-Jul-01 02:32N 36°46' E 003°07'0 0.0
2015-Jul-01 01:32N 36°46' E 003°07'0 0.0
2015-Jun-30 23:20N 36°46' E 003°07'0 0.0
2015-Jun-30 22:17N 36°46' E 003°07'0 0.0
2015-Jun-30 21:29N 36°46' E 003°07'0 0.0
2015-Jun-30 20:32N 36°46' E 003°07'0 0.0
2015-Jun-30 19:32N 36°46' E 003°07'0 0.0
2015-Jun-30 18:32N 36°46' E 003°07'0 0.0
2015-Jun-30 17:32N 36°46' E 003°07'0 0.0
2015-Jun-30 16:26N 36°46' E 003°07'0 0.0
2015-Jun-30 15:32N 36°46' E 003°07'0 0.0
2015-Jun-30 14:32N 36°46' E 003°07'0 0.0
2015-Jun-30 13:32N 36°46' E 003°07'0 0.0
2015-Jun-30 12:32N 36°46' E 003°07'0 0.0
2015-Jun-30 11:29N 36°46' E 003°07'0 0.0
2015-Jun-30 10:32N 36°46' E 003°07'0 0.0
2015-Jun-30 09:32N 36°46' E 003°07'0 0.0
2015-Jun-30 08:29N 36°46' E 003°07'0 0.0
2015-Jun-30 07:32N 36°46' E 003°07'0 0.0
2015-Jun-30 06:32N 36°46' E 003°07'0 0.0
2015-Jun-30 05:20N 36°46' E 003°07'0 0.0
2015-Jun-30 04:32N 36°46' E 003°07'0 0.0
2015-Jun-30 01:32N 36°46' E 003°07'0 0.0
2015-Jun-30 00:32N 36°46' E 003°07'0 0.0
2015-Jun-29 23:29N 36°46' E 003°07'0 0.0
2015-Jun-29 22:32N 36°46' E 003°07'0 0.0
2015-Jun-29 21:32N 36°46' E 003°07'0 0.0
2015-Jun-29 20:32N 36°46' E 003°07'0 0.0
2015-Jun-29 19:32N 36°46' E 003°07'0 0.0
2015-Jun-29 18:32N 36°46' E 003°07'0 0.0
2015-Jun-29 17:20N 36°46' E 003°07'0 0.0
2015-Jun-28 16:08N 36°46' E 003°07'2 1.1
2015-Jun-28 14:31N 36°46' E 003°05'0 0.0
2015-Jun-27 07:08N 36°46' E 003°05'0 0.0
2015-Jun-27 02:32N 36°46' E 003°05'0 0.0
2015-Jun-27 00:14N 36°46' E 003°05'0 0.0
2015-Jun-26 15:32N 36°46' E 003°05'0 0.1
2015-Jun-26 13:33N 36°46' E 003°04'1 1.3
2015-Jun-26 12:33N 36°46' E 003°06'2 2.3
2015-Jun-26 11:33N 36°48' E 003°08'0 0.0
2015-Jun-26 02:23N 36°48' E 003°07'55 7.0
2015-Jun-25 18:28N 36°48' E 001°58'1314.8
2015-Jun-25 17:33N 36°45' E 001°42'3514.7
2015-Jun-25 15:10N 36°39' E 000°59'914.8
2015-Jun-25 14:32N 36°37' E 000°47'1614.5
2015-Jun-25 13:28N 36°34' E 000°28'1314.7
2015-Jun-25 12:33N 36°32' E 000°12'1914.6
2015-Jun-25 11:14N 36°28' W 000°12'24814.9
2015-Jun-24 18:33N 35°58' W 005°17'  

Dump ship's entire track history